Portada
METAR-TAF:

METAR-TAF

Aeroports :

Mönchengladbach, Alemanya

latitud: 51-13-49N, longitud: 006-30-16E, altitud: 38 m

Observació

L'informe es va fer fa 33 minuts, a les 16:50 UTC
Vent 7 kt del Sud-Oest, variant entre Sud i Oest
Temperatura 9°C
Humitat 81%
Pressió 1015 hPa
Visibilitat 10 km o més
Cel cobert a una alçada de 3900 ft

METAR: EDLN 071650Z 23007KT 190V260 9999 OVC039 09/06 Q1015

Hora: 18:23 (17:23 UTC)

Pronòstic

L'informe es va fer fa 3 hores i 23 minuts, a les 14:00 UTC
Pronòstic vàlid del 07 a les 15 UTC al 07 a les 24 UTC
Vent 7 kt del Sud-Oest
Visibilitat 10 km o més
Núvols disperses a una alçada de 2000 ft
Cel ennuvolat a una alçada de 4000 ft

TAF: EDLN 071400Z 0715/0724 23007KT 9999 SCT020 BKN040

Observacions i pronòstics meteorològics de més de 4000 aeroports (METAR i TAF).

Les estacions disponibles són els punts grocs i vermells al mapa.

Posi el ratolí al punt desitjat per veure el nom de l'estació.

Feu clic per veure les observacions i els pronòstics meteorològics.

Per canviar el mapa: feu clic els botons verds amb una creu de color negre per apropar; al botó verd amb un guió per allunyar la imatge; o en les fletxes verdes per a mapes adjacents.


METAR-TAF: